Labin, Croatia
Current Conditions -  °F | °C
As of 7:00 AM on Monday 20 Oct 2014 (Local Time) from LDPL Reporting Station
Clear Clear  
Wind Chill: 59°   Ceiling: Unl
Heat Index: 59°   Visibility: 5mi
Dew Point: 57°   Wind: 3mph
Humidity: 94%   Direction: NA
Pressure: 30.18"   Gusts: NA
Location:  45.1°N, 14.12°E
Report Text: LDPL 200500Z VRB03KT 8000 NSC 15/14 Q1022 NOSIG
Loading
Personal Weather Stations






























Interactive Weather Map
Tropical Storm Tracking
New forecast layout! Learn more

10-Day Weather Forecast

Advertisements
Track Severe Weather on mobile